Observations for PRATICA DI MARE, Italy (LIRE)

LIRE 100155Z 34004KT CAVOK 14/11 Q1012 RMK SKC VIS MIN 9999 WIND THR13 35003KT WIND THR31 /////KT BLU   
LIRE 100055Z 36006KT CAVOK 14/11 Q1011 RMK SKC VIS MIN 9999 WIND THR13 01007KT WIND THR31/////KT BLU
LIRE 092355Z 34005KT CAVOK 13/10 Q1011 RMK SKC VIS MIN 9999 WIND THR13 34005KT WIND THR31 /////KT BLU   
LIRE 092255Z 35007KT 9999 FEW025 SCT040 15/11 Q1011 RMK SCT VIS MIN 9999 WIND THR13 36007KT WIND THR31 /////KT BLU  
LIRE 092155Z 01005KT 9999 FEW025 SCT040 15/11 Q1011 RMK SCT VIS MIN 9999 WIND THR13 03005KT WIND THR31 /////KT BLU  
LIRE 092055Z 31013G24KT 9999 FEW025 SCT040 15/12 Q1011 RMK SCT VIS MIN 9999 WIND THR13 32012KT WIND THR31 /////KT BLU   
LIRE 091955Z 32011KT 9999 SCT025 15/12 Q1010 RERA RMK SCT VIS MIN 9999 WIND THR13 32010KT WIND THR31 /////KT BLU
LIRE 091855Z 31010KT 9999 -RA FEW020 SCT050 15/15 Q1010 RMK BKN VIS MIN 9999 WIND THR13 32009KT WIND THR31 /////KT BLU  
LIRE 091755Z 36010KT 9999 -RA FEW020 SCT050 BKN070 15/12 Q1010 RMK OVC VIS MIN 9999 WIND THR13 36011KT WIND THR31 /////KT BLU   
LIRE 091655Z 35004KT 9999 FEW020 SCT060 15/12 Q1010 RMK BKN VIS MIN 9999 WIND THR13 35006KT WIND THR31 /////KT BLU  
LIRE 091555Z 33005KT 9999 FEW030 15/13 Q1010 RMK SCT VIS MIN 9999 WIND THR13 34005KT WIND THR31 /////KT BLU 
LIRE 091455Z 29005KT 9999 FEW020 16/15 Q1010 RMK SCT SCT080 VIS MIN 7000S WIND THR13 30005KT WIND THR31 /////KT WHT 
LIRE 091355Z 28006KT 9999 FEW020 17/14 Q1010 RMK SCT SCT100 VIS MIN 9999 WIND THR13 29006KT WIND THR31 /////KT BLU  
LIRE 091255Z 27011KT 9999 SCT020 17/14 Q1011 RMK BKN VIS MIN 9999 WIND THR13 30006KT WIND THR31/////KT BLU  
LIRE 091155Z 26012KT 9999 SCT020 SCT030 17/14 Q1012 RMK BKN VIS MIN 9999 WIND THR13 28008KT WIND THR31 /////KT BLU  
LIRE 091055Z 26010KT 9999 SCT020 SCT025 17/15 Q1014 RMK BKN VIS MIN 9999 WIND THR13 27008KT WIND THR31 /////KT BLU  
LIRE 090955Z 13010KT 9999 BKN020 13/08 Q1014 RMK BKN VIS MIN 9999 WIND THR13 15008KT WIND THR31 /////KT WHT 
LIRE 090755Z 12008KT 9999 SCT025 11/01 Q1014 RMK SCT VIS MIN 9999 WIND THR13 16003KT WIND THR31 /////KT BLU 
LIRE 090655Z 09010KT 9999 SCT025 10/M02 Q1015 RMK SCT VIS MIN 9999 WIND THR13 15002KT WIND THR31 /////KT BLU
LIRE 090555Z 09008KT CAVOK 10/02 Q1016 RMK SKC VIS MIN 9999 WIND THR13 15002KT WIND THR31 /////KT BLU   
LIRE 090455Z 05006KT CAVOK 09/05 Q1016 RMK SKC VIS MIN 9999 WIND THR13 05004KT WIND THR31 /////KT BLU   
LIRE 090355Z 04007KT CAVOK 07/05 Q1016 RMK SKC VIS MIN 9999 WIND THR13 05004KT WIND THR31 /////KT BLU   
LIRE 090255Z 03006KT 320V050 CAVOK 07/06 Q1017 RMK SKC VIS MIN 9999 WIND THR13 01003KT WIND THR31 /////KT BLU   
LIRE 090155Z 01005KT CAVOK 07/05 Q1017 RMK SKC VIS MIN 9999 WIND THR13 02004KT WIND THR31 /////KT BLU